Terminal Aerodrome Forecast
Issued by NWS

Home | Current Version | Previous Version | Text Only | Print | Product List | Glossary On
Versions: 1 2 3 4 5 6 7 8 9 10 11 12 13 14 15 16 17 18 19 20 21
000
FTUS46 KPDT 290500
TAFPSC
TAF
KPSC 290520Z 2906/3006 24014G22KT P6SM SCT040 SCT100
     FM291500 32011KT P6SM VCSH SCT020 OVC035
     FM292100 32010KT P6SM SCT040=

USA.gov is the U.S. government's official web portal to all federal, state and local government web resources and services.